sensor_id;sensor_type;location;lat;lon;timestamp;pressure;altitude;pressure_sealevel;temperature;humidity
63715;BME280;49858;48.956;9.076;2023-01-29T00:01:43;99883.63;;;1.91;100.00
63715;BME280;49858;48.956;9.076;2023-01-29T00:04:11;99890.69;;;1.97;100.00
63715;BME280;49858;48.956;9.076;2023-01-29T00:06:42;99879.56;;;1.89;100.00
63715;BME280;49858;48.956;9.076;2023-01-29T00:09:13;99886.56;;;1.69;100.00
63715;BME280;49858;48.956;9.076;2023-01-29T00:11:41;99894.19;;;1.77;100.00
63715;BME280;49858;48.956;9.076;2023-01-29T00:14:12;99885.41;;;1.40;100.00
63715;BME280;49858;48.956;9.076;2023-01-29T00:16:39;99876.31;;;2.12;100.00
63715;BME280;49858;48.956;9.076;2023-01-29T00:19:10;99886.53;;;2.76;100.00
63715;BME280;49858;48.956;9.076;2023-01-29T00:21:38;99888.50;;;2.25;100.00
63715;BME280;49858;48.956;9.076;2023-01-29T00:24:06;99888.41;;;2.86;100.00
63715;BME280;49858;48.956;9.076;2023-01-29T00:26:34;99887.13;;;2.48;100.00
63715;BME280;49858;48.956;9.076;2023-01-29T00:29:02;99887.97;;;2.43;100.00
63715;BME280;49858;48.956;9.076;2023-01-29T00:31:34;99883.31;;;2.69;100.00
63715;BME280;49858;48.956;9.076;2023-01-29T00:34:05;99885.81;;;2.04;100.00
63715;BME280;49858;48.956;9.076;2023-01-29T00:36:37;99887.44;;;2.31;100.00
63715;BME280;49858;48.956;9.076;2023-01-29T00:39:05;99884.06;;;2.90;100.00
63715;BME280;49858;48.956;9.076;2023-01-29T00:41:37;99882.25;;;2.55;100.00
63715;BME280;49858;48.956;9.076;2023-01-29T00:44:22;99885.22;;;2.64;100.00
63715;BME280;49858;48.956;9.076;2023-01-29T00:47:11;99892.56;;;1.71;100.00
63715;BME280;49858;48.956;9.076;2023-01-29T00:49:52;99898.56;;;1.84;100.00
63715;BME280;49858;48.956;9.076;2023-01-29T00:52:23;99886.03;;;1.77;100.00
63715;BME280;49858;48.956;9.076;2023-01-29T00:54:51;99895.56;;;1.85;100.00
63715;BME280;49858;48.956;9.076;2023-01-29T00:57:21;99885.81;;;1.99;100.00
63715;BME280;49858;48.956;9.076;2023-01-29T00:59:49;99886.50;;;1.39;100.00
63715;BME280;49858;48.956;9.076;2023-01-29T01:02:17;99886.09;;;2.03;100.00
63715;BME280;49858;48.956;9.076;2023-01-29T01:05:04;99885.53;;;2.06;100.00
63715;BME280;49858;48.956;9.076;2023-01-29T01:07:34;99892.03;;;2.30;100.00
63715;BME280;49858;48.956;9.076;2023-01-29T01:10:02;99881.19;;;1.90;100.00
63715;BME280;49858;48.956;9.076;2023-01-29T01:12:50;99882.28;;;2.04;100.00
63715;BME280;49858;48.956;9.076;2023-01-29T01:15:21;99879.28;;;2.00;100.00
63715;BME280;49858;48.956;9.076;2023-01-29T01:17:53;99876.28;;;1.92;100.00
63715;BME280;49858;48.956;9.076;2023-01-29T01:20:24;99874.94;;;2.25;100.00
63715;BME280;49858;48.956;9.076;2023-01-29T01:22:55;99876.28;;;1.71;100.00
63715;BME280;49858;48.956;9.076;2023-01-29T01:25:24;99886.53;;;1.49;100.00
63715;BME280;49858;48.956;9.076;2023-01-29T01:27:56;99890.94;;;0.97;100.00
63715;BME280;49858;48.956;9.076;2023-01-29T01:30:25;99886.78;;;0.80;100.00
63715;BME280;49858;48.956;9.076;2023-01-29T01:32:55;99891.94;;;1.39;100.00
63715;BME280;49858;48.956;9.076;2023-01-29T01:35:23;99885.91;;;1.21;100.00
63715;BME280;49858;48.956;9.076;2023-01-29T01:37:55;99886.44;;;1.13;100.00
63715;BME280;49858;48.956;9.076;2023-01-29T01:40:25;99880.31;;;1.48;100.00
63715;BME280;49858;48.956;9.076;2023-01-29T01:42:58;99884.56;;;1.24;100.00
63715;BME280;49858;48.956;9.076;2023-01-29T01:45:30;99884.91;;;1.43;100.00
63715;BME280;49858;48.956;9.076;2023-01-29T01:48:05;99886.09;;;1.98;100.00
63715;BME280;49858;48.956;9.076;2023-01-29T01:50:43;99879.03;;;2.12;100.00
63715;BME280;49858;48.956;9.076;2023-01-29T01:53:21;99876.19;;;1.36;100.00
63715;BME280;49858;48.956;9.076;2023-01-29T01:55:56;99868.78;;;1.06;100.00
63715;BME280;49858;48.956;9.076;2023-01-29T01:58:37;99872.06;;;0.60;100.00
63715;BME280;49858;48.956;9.076;2023-01-29T02:01:07;99871.31;;;1.27;100.00
63715;BME280;49858;48.956;9.076;2023-01-29T02:03:39;99874.06;;;1.48;100.00
63715;BME280;49858;48.956;9.076;2023-01-29T02:06:31;99870.84;;;1.56;100.00
63715;BME280;49858;48.956;9.076;2023-01-29T02:09:26;99878.72;;;1.68;100.00
63715;BME280;49858;48.956;9.076;2023-01-29T02:12:05;99889.84;;;1.82;100.00
63715;BME280;49858;48.956;9.076;2023-01-29T02:14:35;99877.88;;;1.52;100.00
63715;BME280;49858;48.956;9.076;2023-01-29T02:17:10;99879.78;;;0.84;100.00
63715;BME280;49858;48.956;9.076;2023-01-29T02:19:46;99874.19;;;1.00;100.00
63715;BME280;49858;48.956;9.076;2023-01-29T02:22:28;99884.59;;;1.34;100.00
63715;BME280;49858;48.956;9.076;2023-01-29T02:25:51;99885.19;;;1.46;100.00
63715;BME280;49858;48.956;9.076;2023-01-29T02:28:31;99889.03;;;1.71;100.00
63715;BME280;49858;48.956;9.076;2023-01-29T02:31:23;99884.59;;;1.34;100.00
63715;BME280;49858;48.956;9.076;2023-01-29T02:34:05;99887.66;;;1.68;100.00
63715;BME280;49858;48.956;9.076;2023-01-29T02:36:45;99882.72;;;1.50;100.00
63715;BME280;49858;48.956;9.076;2023-01-29T02:39:23;99881.19;;;2.00;100.00
63715;BME280;49858;48.956;9.076;2023-01-29T02:41:59;99879.53;;;1.68;100.00
63715;BME280;49858;48.956;9.076;2023-01-29T02:44:36;99874.38;;;1.77;100.00
63715;BME280;49858;48.956;9.076;2023-01-29T02:47:13;99871.31;;;1.33;100.00
63715;BME280;49858;48.956;9.076;2023-01-29T02:49:54;99873.84;;;1.65;100.00
63715;BME280;49858;48.956;9.076;2023-01-29T02:52:34;99876.28;;;1.71;100.00
63715;BME280;49858;48.956;9.076;2023-01-29T02:55:11;99874.72;;;1.08;100.00
63715;BME280;49858;48.956;9.076;2023-01-29T02:57:50;99872.75;;;0.88;100.00
63715;BME280;49858;48.956;9.076;2023-01-29T03:00:25;99877.31;;;0.77;100.00
63715;BME280;49858;48.956;9.076;2023-01-29T03:03:02;99879.78;;;0.84;100.00
63715;BME280;49858;48.956;9.076;2023-01-29T03:05:41;99865.16;;;0.85;100.00
63715;BME280;49858;48.956;9.076;2023-01-29T03:08:14;99877.38;;;0.92;100.00
63715;BME280;49858;48.956;9.076;2023-01-29T03:10:49;99876.50;;;0.76;100.00
63715;BME280;49858;48.956;9.076;2023-01-29T03:13:27;99880.88;;;0.88;100.00
63715;BME280;49858;48.956;9.076;2023-01-29T03:15:59;99868.03;;;1.20;100.00
63715;BME280;49858;48.956;9.076;2023-01-29T03:18:39;99877.44;;;1.02;100.00
63715;BME280;49858;48.956;9.076;2023-01-29T03:21:16;99873.50;;;1.41;100.00
63715;BME280;49858;48.956;9.076;2023-01-29T03:24:05;99873.38;;;1.00;100.00
63715;BME280;49858;48.956;9.076;2023-01-29T03:26:53;99866.53;;;1.75;100.00
63715;BME280;49858;48.956;9.076;2023-01-29T03:29:44;99868.38;;;0.76;100.00
63715;BME280;49858;48.956;9.076;2023-01-29T03:32:47;99878.38;;;1.44;100.00
63715;BME280;49858;48.956;9.076;2023-01-29T03:35:21;99867.84;;;1.58;100.00
63715;BME280;49858;48.956;9.076;2023-01-29T03:37:59;99876.50;;;1.54;100.00
63715;BME280;49858;48.956;9.076;2023-01-29T03:40:30;99871.44;;;1.94;100.00
63715;BME280;49858;48.956;9.076;2023-01-29T03:43:08;99874.91;;;1.74;100.00
63715;BME280;49858;48.956;9.076;2023-01-29T03:45:45;99868.16;;;2.02;100.00
63715;BME280;49858;48.956;9.076;2023-01-29T03:48:27;99862.75;;;2.22;100.00
63715;BME280;49858;48.956;9.076;2023-01-29T03:51:01;99873.56;;;2.43;100.00
63715;BME280;49858;48.956;9.076;2023-01-29T03:53:39;99868.50;;;1.07;100.00
63715;BME280;49858;48.956;9.076;2023-01-29T03:56:20;99873.19;;;0.64;100.00
63715;BME280;49858;48.956;9.076;2023-01-29T03:58:55;99864.16;;;1.06;100.00
63715;BME280;49858;48.956;9.076;2023-01-29T04:01:41;99875.72;;;1.59;100.00
63715;BME280;49858;48.956;9.076;2023-01-29T04:04:18;99875.63;;;1.18;100.00
63715;BME280;49858;48.956;9.076;2023-01-29T04:06:50;99872.75;;;1.56;100.00
63715;BME280;49858;48.956;9.076;2023-01-29T04:09:22;99874.94;;;2.25;100.00
63715;BME280;49858;48.956;9.076;2023-01-29T04:11:56;99870.59;;;1.83;100.00
63715;BME280;49858;48.956;9.076;2023-01-29T04:14:30;99877.28;;;1.40;100.00
63715;BME280;49858;48.956;9.076;2023-01-29T04:17:01;99877.09;;;0.89;100.00
63715;BME280;49858;48.956;9.076;2023-01-29T04:19:40;99872.34;;;1.16;100.00
63715;BME280;49858;48.956;9.076;2023-01-29T04:22:11;99871.75;;;1.04;100.00
63715;BME280;49858;48.956;9.076;2023-01-29T04:24:43;99878.25;;;1.03;100.00
63715;BME280;49858;48.956;9.076;2023-01-29T04:27:22;99876.13;;;0.58;100.00
63715;BME280;49858;48.956;9.076;2023-01-29T04:30:06;99881.47;;;0.95;100.00
63715;BME280;49858;48.956;9.076;2023-01-29T04:32:40;99880.38;;;0.43;100.00
63715;BME280;49858;48.956;9.076;2023-01-29T04:35:23;99874.09;;;0.80;100.00
63715;BME280;49858;48.956;9.076;2023-01-29T04:38:00;99880.44;;;1.11;100.00
63715;BME280;49858;48.956;9.076;2023-01-29T04:40:38;99883.31;;;0.89;100.00
63715;BME280;49858;48.956;9.076;2023-01-29T04:43:14;99881.28;;;0.64;100.00
63715;BME280;49858;48.956;9.076;2023-01-29T04:45:52;99880.28;;;0.75;100.00
63715;BME280;49858;48.956;9.076;2023-01-29T04:48:26;99882.28;;;0.95;100.00
63715;BME280;49858;48.956;9.076;2023-01-29T04:51:03;99892.03;;;0.49;100.00
63715;BME280;49858;48.956;9.076;2023-01-29T04:53:37;99889.53;;;0.42;100.00
63715;BME280;49858;48.956;9.076;2023-01-29T04:56:17;99882.34;;;0.58;100.00
63715;BME280;49858;48.956;9.076;2023-01-29T04:58:50;99886.81;;;0.85;100.00
63715;BME280;49858;48.956;9.076;2023-01-29T05:01:21;99881.63;;;1.41;100.00
63715;BME280;49858;48.956;9.076;2023-01-29T05:03:53;99868.94;;;1.62;100.00
63715;BME280;49858;48.956;9.076;2023-01-29T05:06:24;99874.59;;;1.55;100.00
63715;BME280;49858;48.956;9.076;2023-01-29T05:08:53;99872.19;;;1.59;100.00
63715;BME280;49858;48.956;9.076;2023-01-29T05:11:23;99873.25;;;1.47;100.00
63715;BME280;49858;48.956;9.076;2023-01-29T05:13:51;99877.72;;;1.06;100.00
63715;BME280;49858;48.956;9.076;2023-01-29T05:16:21;99886.25;;;1.40;100.00
63715;BME280;49858;48.956;9.076;2023-01-29T05:18:52;99895.56;;;0.97;100.00
63715;BME280;49858;48.956;9.076;2023-01-29T05:21:21;99892.41;;;0.63;100.00
63715;BME280;49858;48.956;9.076;2023-01-29T05:26:45;99895.44;;;0.71;100.00
63715;BME280;49858;48.956;9.076;2023-01-29T05:29:33;99881.09;;;0.71;100.00
63715;BME280;49858;48.956;9.076;2023-01-29T05:32:01;99892.84;;;0.12;100.00
63715;BME280;49858;48.956;9.076;2023-01-29T05:34:29;99892.09;;;0.59;100.00
63715;BME280;49858;48.956;9.076;2023-01-29T05:36:57;99884.28;;;1.20;100.00
63715;BME280;49858;48.956;9.076;2023-01-29T05:39:25;99861.94;;;0.93;100.00
63715;BME280;49858;48.956;9.076;2023-01-29T05:41:54;99837.50;;;1.86;100.00
63715;BME280;49858;48.956;9.076;2023-01-29T05:44:23;99830.72;;;1.89;100.00
63715;BME280;49858;48.956;9.076;2023-01-29T05:46:51;99832.03;;;2.42;100.00
63715;BME280;49858;48.956;9.076;2023-01-29T05:49:19;99838.22;;;2.58;100.00
63715;BME280;49858;48.956;9.076;2023-01-29T05:51:49;99847.94;;;2.85;100.00
63715;BME280;49858;48.956;9.076;2023-01-29T05:54:17;99859.09;;;2.83;100.00
63715;BME280;49858;48.956;9.076;2023-01-29T05:56:45;99862.28;;;2.95;100.00
63715;BME280;49858;48.956;9.076;2023-01-29T05:59:15;99851.25;;;2.61;99.29
63715;BME280;49858;48.956;9.076;2023-01-29T06:01:43;99858.91;;;0.79;100.00
63715;BME280;49858;48.956;9.076;2023-01-29T06:04:11;99867.41;;;1.08;100.00
63715;BME280;49858;48.956;9.076;2023-01-29T06:06:39;99866.72;;;1.33;100.00
63715;BME280;49858;48.956;9.076;2023-01-29T06:09:09;99858.09;;;1.57;100.00
63715;BME280;49858;48.956;9.076;2023-01-29T06:11:37;99856.19;;;1.52;100.00
63715;BME280;49858;48.956;9.076;2023-01-29T06:14:04;99861.25;;;1.23;100.00
63715;BME280;49858;48.956;9.076;2023-01-29T06:16:34;99857.16;;;1.15;100.00
63715;BME280;49858;48.956;9.076;2023-01-29T06:19:01;99849.16;;;1.56;100.00
63715;BME280;49858;48.956;9.076;2023-01-29T06:21:29;99855.41;;;1.77;100.00
63715;BME280;49858;48.956;9.076;2023-01-29T06:23:57;99860.50;;;1.48;100.00
63715;BME280;49858;48.956;9.076;2023-01-29T06:26:25;99861.09;;;1.65;100.00
63715;BME280;49858;48.956;9.076;2023-01-29T06:28:53;99865.75;;;0.44;100.00
63715;BME280;49858;48.956;9.076;2023-01-29T06:31:20;99867.69;;;0.49;100.00
63715;BME280;49858;48.956;9.076;2023-01-29T06:34:04;99858.09;;;0.84;100.00
63715;BME280;49858;48.956;9.076;2023-01-29T06:36:34;99859.59;;;1.12;100.00
63715;BME280;49858;48.956;9.076;2023-01-29T06:39:02;99856.09;;;1.26;100.00
63715;BME280;49858;48.956;9.076;2023-01-29T06:41:31;99858.69;;;0.86;100.00
63715;BME280;49858;48.956;9.076;2023-01-29T06:43:59;99854.56;;;0.31;100.00
63715;BME280;49858;48.956;9.076;2023-01-29T06:46:26;99860.28;;;0.82;100.00
63715;BME280;49858;48.956;9.076;2023-01-29T06:48:57;99865.75;;;0.92;100.00
63715;BME280;49858;48.956;9.076;2023-01-29T06:51:26;99868.13;;;0.83;100.00
63715;BME280;49858;48.956;9.076;2023-01-29T06:53:54;99864.19;;;1.16;100.00
63715;BME280;49858;48.956;9.076;2023-01-29T06:56:22;99872.66;;;1.30;100.00
63715;BME280;49858;48.956;9.076;2023-01-29T06:58:50;99864.00;;;1.28;100.00
63715;BME280;49858;48.956;9.076;2023-01-29T07:01:18;99871.81;;;1.14;100.00
63715;BME280;49858;48.956;9.076;2023-01-29T07:04:01;99865.72;;;0.39;100.00
63715;BME280;49858;48.956;9.076;2023-01-29T07:06:31;99867.09;;;0.47;100.00
63715;BME280;49858;48.956;9.076;2023-01-29T07:08:59;99867.91;;;0.90;100.00
63715;BME280;49858;48.956;9.076;2023-01-29T07:11:27;99868.53;;;1.17;100.00
63715;BME280;49858;48.956;9.076;2023-01-29T07:13:55;99876.84;;;1.84;100.00
63715;BME280;49858;48.956;9.076;2023-01-29T07:16:22;99884.41;;;1.66;100.00
63715;BME280;49858;48.956;9.076;2023-01-29T07:18:52;99879.56;;;1.84;100.00
63715;BME280;49858;48.956;9.076;2023-01-29T07:21:19;99874.13;;;1.89;100.00
63715;BME280;49858;48.956;9.076;2023-01-29T07:23:49;99887.63;;;1.43;100.00
63715;BME280;49858;48.956;9.076;2023-01-29T07:26:16;99886.09;;;2.03;100.00
63715;BME280;49858;48.956;9.076;2023-01-29T07:28:44;99895.28;;;1.92;100.00
63715;BME280;49858;48.956;9.076;2023-01-29T07:31:13;99890.16;;;2.11;100.00
63715;BME280;49858;48.956;9.076;2023-01-29T07:33:42;99893.66;;;2.01;100.00
63715;BME280;49858;48.956;9.076;2023-01-29T07:36:11;99897.22;;;2.17;100.00
63715;BME280;49858;48.956;9.076;2023-01-29T07:38:39;99894.75;;;2.25;100.00
63715;BME280;49858;48.956;9.076;2023-01-29T07:41:10;99892.56;;;1.66;100.00
63715;BME280;49858;48.956;9.076;2023-01-29T07:43:38;99889.34;;;2.15;100.00
63715;BME280;49858;48.956;9.076;2023-01-29T07:46:06;99898.81;;;1.97;100.00
63715;BME280;49858;48.956;9.076;2023-01-29T07:48:34;99902.16;;;1.16;100.00
63715;BME280;49858;48.956;9.076;2023-01-29T07:51:02;99907.16;;;1.55;100.00
63715;BME280;49858;48.956;9.076;2023-01-29T07:53:30;99902.97;;;1.22;100.00
63715;BME280;49858;48.956;9.076;2023-01-29T07:55:58;99903.03;;;1.32;100.00
63715;BME280;49858;48.956;9.076;2023-01-29T07:58:28;99916.81;;;1.20;100.00
63715;BME280;49858;48.956;9.076;2023-01-29T08:00:55;99916.50;;;0.27;100.00
63715;BME280;49858;48.956;9.076;2023-01-29T08:03:23;99923.81;;;1.11;100.00
63715;BME280;49858;48.956;9.076;2023-01-29T08:05:51;99923.78;;;1.84;100.00
63715;BME280;49858;48.956;9.076;2023-01-29T08:08:19;99933.59;;;0.33;100.00
63715;BME280;49858;48.956;9.076;2023-01-29T08:10:46;99935.00;;;0.08;100.00
63715;BME280;49858;48.956;9.076;2023-01-29T08:13:14;99938.97;;;1.07;100.00
63715;BME280;49858;48.956;9.076;2023-01-29T08:15:44;99927.09;;;1.18;100.00
63715;BME280;49858;48.956;9.076;2023-01-29T08:18:12;99932.13;;;-0.12;100.00
63715;BME280;49858;48.956;9.076;2023-01-29T08:20:40;99928.34;;;-0.38;100.00
63715;BME280;49858;48.956;9.076;2023-01-29T08:23:12;99936.63;;;0.09;100.00
63715;BME280;49858;48.956;9.076;2023-01-29T08:25:40;99927.72;;;1.41;100.00
63715;BME280;49858;48.956;9.076;2023-01-29T08:28:09;99940.09;;;2.10;100.00
63715;BME280;49858;48.956;9.076;2023-01-29T08:30:38;99931.13;;;2.24;100.00
63715;BME280;49858;48.956;9.076;2023-01-29T08:33:07;99936.56;;;2.35;100.00
63715;BME280;49858;48.956;9.076;2023-01-29T08:35:35;99937.13;;;2.52;100.00
63715;BME280;49858;48.956;9.076;2023-01-29T08:38:04;99943.34;;;2.01;100.00
63715;BME280;49858;48.956;9.076;2023-01-29T08:40:33;99941.47;;;2.07;100.00
63715;BME280;49858;48.956;9.076;2023-01-29T08:43:02;99931.41;;;2.69;100.00
63715;BME280;49858;48.956;9.076;2023-01-29T08:45:35;99938.47;;;1.98;100.00
63715;BME280;49858;48.956;9.076;2023-01-29T08:48:04;99938.47;;;2.29;100.00
63715;BME280;49858;48.956;9.076;2023-01-29T08:50:33;99936.09;;;1.29;100.00
63715;BME280;49858;48.956;9.076;2023-01-29T08:53:02;99936.06;;;0.71;100.00
63715;BME280;49858;48.956;9.076;2023-01-29T08:55:34;99937.75;;;0.83;100.00
63715;BME280;49858;48.956;9.076;2023-01-29T08:58:03;99936.06;;;1.24;100.00
63715;BME280;49858;48.956;9.076;2023-01-29T09:00:31;99936.56;;;2.14;100.00
63715;BME280;49858;48.956;9.076;2023-01-29T09:02:59;99941.19;;;2.54;100.00
63715;BME280;49858;48.956;9.076;2023-01-29T09:05:27;99942.25;;;2.59;100.00
63715;BME280;49858;48.956;9.076;2023-01-29T09:07:57;99947.44;;;2.65;100.00
63715;BME280;49858;48.956;9.076;2023-01-29T09:10:27;99952.53;;;2.97;100.00
63715;BME280;49858;48.956;9.076;2023-01-29T09:12:56;99950.34;;;2.99;100.00
63715;BME280;49858;48.956;9.076;2023-01-29T09:15:24;99948.97;;;3.12;100.00
63715;BME280;49858;48.956;9.076;2023-01-29T09:17:52;99945.41;;;3.17;100.00
63715;BME280;49858;48.956;9.076;2023-01-29T09:20:22;99947.97;;;2.83;100.00
63715;BME280;49858;48.956;9.076;2023-01-29T09:22:50;99956.63;;;2.95;100.00
63715;BME280;49858;48.956;9.076;2023-01-29T09:25:20;99960.19;;;2.70;100.00
63715;BME280;49858;48.956;9.076;2023-01-29T09:27:48;99953.00;;;3.20;100.00
63715;BME280;49858;48.956;9.076;2023-01-29T09:30:17;99955.09;;;3.43;100.00
63715;BME280;49858;48.956;9.076;2023-01-29T09:32:45;99953.81;;;3.30;100.00
63715;BME280;49858;48.956;9.076;2023-01-29T09:35:20;99943.19;;;3.34;100.00
63715;BME280;49858;48.956;9.076;2023-01-29T09:37:49;99923.16;;;3.04;100.00
63715;BME280;49858;48.956;9.076;2023-01-29T09:40:23;99921.06;;;3.51;100.00
63715;BME280;49858;48.956;9.076;2023-01-29T09:42:58;99927.59;;;3.55;100.00
63715;BME280;49858;48.956;9.076;2023-01-29T09:45:29;99917.09;;;3.82;100.00
63715;BME280;49858;48.956;9.076;2023-01-29T09:47:59;99918.41;;;3.41;100.00
63715;BME280;49858;48.956;9.076;2023-01-29T09:50:31;99905.41;;;4.16;98.06
63715;BME280;49858;48.956;9.076;2023-01-29T09:53:04;99895.13;;;3.69;100.00
63715;BME280;49858;48.956;9.076;2023-01-29T09:55:41;99897.34;;;4.06;100.00
63715;BME280;49858;48.956;9.076;2023-01-29T09:58:16;99878.81;;;4.37;96.71
63715;BME280;49858;48.956;9.076;2023-01-29T10:00:52;99888.00;;;4.46;95.12
63715;BME280;49858;48.956;9.076;2023-01-29T10:03:37;99895.69;;;4.68;91.70
63715;BME280;49858;48.956;9.076;2023-01-29T10:06:24;99891.66;;;4.31;96.48
63715;BME280;49858;48.956;9.076;2023-01-29T10:12:05;99904.28;;;5.52;87.58
63715;BME280;49858;48.956;9.076;2023-01-29T10:14:44;99901.97;;;5.78;86.59
63715;BME280;49858;48.956;9.076;2023-01-29T10:17:28;99893.59;;;5.56;83.98
63715;BME280;49858;48.956;9.076;2023-01-29T10:23:09;99893.25;;;4.03;94.51
63715;BME280;49858;48.956;9.076;2023-01-29T10:25:41;99882.44;;;2.89;100.00
63715;BME280;49858;48.956;9.076;2023-01-29T10:28:16;99895.88;;;3.79;98.37
63715;BME280;49858;48.956;9.076;2023-01-29T10:30:47;99892.53;;;4.85;89.89
63715;BME280;49858;48.956;9.076;2023-01-29T10:33:18;99902.31;;;3.94;93.04
63715;BME280;49858;48.956;9.076;2023-01-29T10:35:53;99891.44;;;1.47;100.00
63715;BME280;49858;48.956;9.076;2023-01-29T10:38:30;99896.38;;;1.75;100.00
63715;BME280;49858;48.956;9.076;2023-01-29T10:41:13;99906.44;;;2.21;100.00
63715;BME280;49858;48.956;9.076;2023-01-29T10:43:54;99908.63;;;2.19;100.00
63715;BME280;49858;48.956;9.076;2023-01-29T10:46:34;99918.91;;;2.63;100.00
63715;BME280;49858;48.956;9.076;2023-01-29T10:49:17;99909.13;;;1.80;100.00
63715;BME280;49858;48.956;9.076;2023-01-29T10:52:04;99899.09;;;2.47;100.00
63715;BME280;49858;48.956;9.076;2023-01-29T10:54:52;99894.84;;;3.16;98.53
63715;BME280;49858;48.956;9.076;2023-01-29T10:57:37;99901.81;;;1.81;100.00
63715;BME280;49858;48.956;9.076;2023-01-29T11:00:16;99902.09;;;2.04;100.00
63715;BME280;49858;48.956;9.076;2023-01-29T11:02:47;99899.88;;;1.71;100.00
63715;BME280;49858;48.956;9.076;2023-01-29T11:05:20;99894.22;;;2.13;100.00
63715;BME280;49858;48.956;9.076;2023-01-29T11:08:00;99897.47;;;2.51;100.00
63715;BME280;49858;48.956;9.076;2023-01-29T11:10:32;99899.38;;;2.50;100.00
63715;BME280;49858;48.956;9.076;2023-01-29T11:13:04;99891.22;;;2.25;100.00
63715;BME280;49858;48.956;9.076;2023-01-29T11:15:33;99878.03;;;3.03;100.00
63715;BME280;49858;48.956;9.076;2023-01-29T11:18:03;99876.28;;;2.43;100.00
63715;BME280;49858;48.956;9.076;2023-01-29T11:20:33;99866.88;;;3.05;100.00
63715;BME280;49858;48.956;9.076;2023-01-29T11:23:00;99858.06;;;3.28;99.13
63715;BME280;49858;48.956;9.076;2023-01-29T11:25:29;99845.81;;;2.66;100.00
63715;BME280;49858;48.956;9.076;2023-01-29T11:27:59;99845.56;;;3.32;99.89
63715;BME280;49858;48.956;9.076;2023-01-29T11:30:29;99839.06;;;2.53;100.00
63715;BME280;49858;48.956;9.076;2023-01-29T11:33:06;99849.97;;;1.82;100.00
63715;BME280;49858;48.956;9.076;2023-01-29T11:35:35;99849.06;;;1.31;100.00
63715;BME280;49858;48.956;9.076;2023-01-29T11:38:14;99846.16;;;1.58;100.00
63715;BME280;49858;48.956;9.076;2023-01-29T11:40:45;99837.75;;;1.69;100.00
63715;BME280;49858;48.956;9.076;2023-01-29T11:46:10;99833.28;;;2.75;100.00
63715;BME280;49858;48.956;9.076;2023-01-29T11:48:43;99838.16;;;2.84;100.00
63715;BME280;49858;48.956;9.076;2023-01-29T11:51:19;99830.81;;;3.39;100.00
63715;BME280;49858;48.956;9.076;2023-01-29T11:53:50;99821.97;;;4.30;95.57
63715;BME280;49858;48.956;9.076;2023-01-29T11:56:21;99816.84;;;4.53;95.51
63715;BME280;49858;48.956;9.076;2023-01-29T11:58:52;99809.34;;;4.64;94.91
63715;BME280;49858;48.956;9.076;2023-01-29T12:01:29;99807.09;;;4.18;93.31
63715;BME280;49858;48.956;9.076;2023-01-29T12:03:59;99798.72;;;4.14;97.99
63715;BME280;49858;48.956;9.076;2023-01-29T12:06:33;99795.16;;;2.96;100.00
63715;BME280;49858;48.956;9.076;2023-01-29T12:09:08;99788.78;;;4.76;95.58
63715;BME280;49858;48.956;9.076;2023-01-29T12:11:41;99795.78;;;4.82;91.09
63715;BME280;49858;48.956;9.076;2023-01-29T12:14:23;99782.25;;;4.24;93.11
63715;BME280;49858;48.956;9.076;2023-01-29T12:16:57;99779.56;;;4.48;95.46
63715;BME280;49858;48.956;9.076;2023-01-29T12:19:30;99767.91;;;4.14;93.71
63715;BME280;49858;48.956;9.076;2023-01-29T12:22:05;99762.56;;;4.80;91.63
63715;BME280;49858;48.956;9.076;2023-01-29T12:24:40;99754.38;;;4.32;95.12
63715;BME280;49858;48.956;9.076;2023-01-29T12:27:20;99759.94;;;4.46;94.07
63715;BME280;49858;48.956;9.076;2023-01-29T12:29:55;99757.38;;;4.07;91.72
63715;BME280;49858;48.956;9.076;2023-01-29T12:32:33;99756.09;;;2.01;100.00
63715;BME280;49858;48.956;9.076;2023-01-29T12:35:11;99741.59;;;3.06;100.00
63715;BME280;49858;48.956;9.076;2023-01-29T12:37:45;99732.53;;;1.76;100.00
63715;BME280;49858;48.956;9.076;2023-01-29T12:40:16;99727.09;;;1.71;100.00
63715;BME280;49858;48.956;9.076;2023-01-29T12:42:48;99726.69;;;2.29;100.00
63715;BME280;49858;48.956;9.076;2023-01-29T12:45:19;99711.19;;;2.94;100.00
63715;BME280;49858;48.956;9.076;2023-01-29T12:47:50;99712.41;;;1.98;100.00
63715;BME280;49858;48.956;9.076;2023-01-29T12:50:23;99710.44;;;2.24;100.00
63715;BME280;49858;48.956;9.076;2023-01-29T12:52:56;99710.25;;;1.95;100.00
63715;BME280;49858;48.956;9.076;2023-01-29T12:55:31;99712.41;;;1.93;100.00
63715;BME280;49858;48.956;9.076;2023-01-29T12:58:02;99709.03;;;2.37;100.00
63715;BME280;49858;48.956;9.076;2023-01-29T13:00:33;99711.63;;;1.77;100.00
63715;BME280;49858;48.956;9.076;2023-01-29T13:03:07;99700.25;;;1.49;100.00
63715;BME280;49858;48.956;9.076;2023-01-29T13:05:45;99696.47;;;1.56;100.00
63715;BME280;49858;48.956;9.076;2023-01-29T13:08:17;99691.78;;;1.97;100.00
63715;BME280;49858;48.956;9.076;2023-01-29T13:10:49;99692.88;;;1.91;100.00
63715;BME280;49858;48.956;9.076;2023-01-29T13:13:23;99690.56;;;2.39;100.00
63715;BME280;49858;48.956;9.076;2023-01-29T13:15:55;99687.84;;;2.39;100.00
63715;BME280;49858;48.956;9.076;2023-01-29T13:18:35;99686.41;;;3.06;100.00
63715;BME280;49858;48.956;9.076;2023-01-29T13:21:11;99698.06;;;2.62;100.00
63715;BME280;49858;48.956;9.076;2023-01-29T13:23:43;99701.47;;;2.28;100.00
63715;BME280;49858;48.956;9.076;2023-01-29T13:26:16;99702.63;;;2.07;100.00
63715;BME280;49858;48.956;9.076;2023-01-29T13:28:45;99695.03;;;2.04;100.00
63715;BME280;49858;48.956;9.076;2023-01-29T13:31:23;99697.72;;;2.09;100.00
63715;BME280;49858;48.956;9.076;2023-01-29T13:34:03;99692.81;;;2.11;100.00
63715;BME280;49858;48.956;9.076;2023-01-29T13:36:36;99701.97;;;2.30;100.00
63715;BME280;49858;48.956;9.076;2023-01-29T13:39:14;99698.75;;;2.28;100.00
63715;BME280;49858;48.956;9.076;2023-01-29T13:41:42;99693.06;;;2.85;100.00
63715;BME280;49858;48.956;9.076;2023-01-29T13:44:20;99696.44;;;3.45;100.00